createdAt,value
2023-03-26T00:00:43.662Z,98865.06
2023-03-26T00:03:14.835Z,98873.94
2023-03-26T00:05:41.402Z,98870.66
2023-03-26T00:08:11.210Z,98851.94
2023-03-26T00:10:40.335Z,98858.06
2023-03-26T00:13:07.632Z,98864.66
2023-03-26T00:15:35.517Z,98894.44
2023-03-26T00:18:02.206Z,98859.72
2023-03-26T00:20:32.847Z,98881.19
2023-03-26T00:23:02.537Z,98886.50
2023-03-26T00:25:28.897Z,98922.88
2023-03-26T00:27:55.591Z,98908.78
2023-03-26T00:30:22.195Z,98895.75
2023-03-26T00:32:48.640Z,98897.72
2023-03-26T00:35:20.774Z,98897.94
2023-03-26T00:37:47.165Z,98891.47
2023-03-26T00:40:13.863Z,98901.06
2023-03-26T00:42:40.215Z,98885.56
2023-03-26T00:45:07.364Z,98907.38
2023-03-26T00:47:34.381Z,98898.50
2023-03-26T00:50:01.157Z,98882.63
2023-03-26T00:52:28.716Z,98871.28
2023-03-26T00:54:57.605Z,98892.25
2023-03-26T00:57:35.004Z,98867.13
2023-03-26T01:00:15.924Z,98869.78
2023-03-26T01:02:45.046Z,98869.09
2023-03-26T01:05:36.374Z,98874.72
2023-03-26T01:08:19.069Z,98879.00
2023-03-26T01:10:50.739Z,98859.53
2023-03-26T01:13:22.869Z,98869.09
2023-03-26T01:15:51.183Z,98865.44
2023-03-26T01:18:20.705Z,98854.88
2023-03-26T01:20:49.706Z,98860.81
2023-03-26T01:23:23.561Z,98854.50
2023-03-26T01:26:01.425Z,98863.81
2023-03-26T01:28:32.109Z,98858.03
2023-03-26T01:31:21.763Z,98879.19
2023-03-26T01:33:57.840Z,98883.63
2023-03-26T01:36:50.101Z,98869.59
2023-03-26T01:39:28.170Z,98864.16
2023-03-26T01:42:02.250Z,98894.22
2023-03-26T01:44:36.130Z,98871.78
2023-03-26T01:47:03.935Z,98869.78
2023-03-26T01:49:31.542Z,98865.81
2023-03-26T01:52:00.606Z,98874.94
2023-03-26T01:54:31.149Z,98884.03
2023-03-26T01:57:10.347Z,98884.06
2023-03-26T01:59:58.513Z,98882.78
2023-03-26T02:03:01.833Z,98863.63
2023-03-26T02:05:41.151Z,98851.91
2023-03-26T02:08:23.105Z,98848.78
2023-03-26T02:10:55.747Z,98872.72
2023-03-26T02:13:22.465Z,98877.53
2023-03-26T02:16:00.893Z,98858.38
2023-03-26T02:18:39.002Z,98872.94
2023-03-26T02:21:21.307Z,98885.34
2023-03-26T02:23:58.130Z,98870.63
2023-03-26T02:26:25.282Z,98863.19
2023-03-26T02:28:52.047Z,98873.28
2023-03-26T02:31:19.392Z,98869.28
2023-03-26T02:33:47.627Z,98877.53
2023-03-26T02:36:14.309Z,98870.97
2023-03-26T02:38:41.566Z,98884.81
2023-03-26T02:41:07.958Z,98849.63
2023-03-26T02:43:34.301Z,98880.03
2023-03-26T02:46:00.679Z,98881.00
2023-03-26T02:48:27.069Z,98889.81
2023-03-26T02:50:56.378Z,98882.22
2023-03-26T02:53:23.861Z,98882.84
2023-03-26T02:55:51.004Z,98890.16
2023-03-26T02:58:17.703Z,98889.47
2023-03-26T03:00:45.993Z,98875.47
2023-03-26T03:03:13.439Z,98871.19
2023-03-26T03:05:42.982Z,98869.69
2023-03-26T03:08:09.676Z,98879.59
2023-03-26T03:10:37.759Z,98852.00
2023-03-26T03:13:07.612Z,98873.13
2023-03-26T03:15:34.758Z,98867.34
2023-03-26T03:18:01.226Z,98872.00
2023-03-26T03:20:30.245Z,98872.66
2023-03-26T03:22:59.882Z,98872.81
2023-03-26T03:25:26.570Z,98876.31
2023-03-26T03:27:53.940Z,98871.34
2023-03-26T03:30:20.821Z,98866.25
2023-03-26T03:32:47.766Z,98860.47
2023-03-26T03:35:14.171Z,98871.03
2023-03-26T03:37:40.539Z,98879.59
2023-03-26T03:40:08.106Z,98877.31
2023-03-26T03:42:34.434Z,98867.75
2023-03-26T03:45:01.915Z,98869.91
2023-03-26T03:47:28.322Z,98887.53
2023-03-26T03:49:54.700Z,98875.81
2023-03-26T03:52:21.037Z,98872.69
2023-03-26T03:54:47.413Z,98876.66
2023-03-26T03:57:15.937Z,98873.50
2023-03-26T03:59:48.074Z,98877.47
2023-03-26T04:02:21.213Z,98863.28
2023-03-26T04:04:50.089Z,98858.81
2023-03-26T04:07:16.540Z,98862.31
2023-03-26T04:09:42.976Z,98855.03
2023-03-26T04:12:09.318Z,98859.81
2023-03-26T04:14:35.816Z,98854.53
2023-03-26T04:17:02.208Z,98856.69
2023-03-26T04:19:28.679Z,98862.94
2023-03-26T04:21:55.303Z,98865.44
2023-03-26T04:24:24.555Z,98858.19
2023-03-26T04:26:50.968Z,98857.66
2023-03-26T04:29:21.924Z,98854.69
2023-03-26T04:31:50.406Z,98851.88
2023-03-26T04:34:24.404Z,98854.19
2023-03-26T04:36:54.537Z,98852.84
2023-03-26T04:39:29.014Z,98846.06
2023-03-26T04:41:56.281Z,98838.34
2023-03-26T04:44:22.665Z,98844.09
2023-03-26T04:46:50.105Z,98844.75
2023-03-26T04:49:16.518Z,98857.13
2023-03-26T04:51:44.745Z,98844.56
2023-03-26T04:54:13.420Z,98853.84
2023-03-26T04:57:01.027Z,98835.63
2023-03-26T04:59:34.469Z,98849.19
2023-03-26T05:02:06.109Z,98842.75
2023-03-26T05:04:36.750Z,98847.53
2023-03-26T05:07:03.183Z,98842.72
2023-03-26T05:09:29.557Z,98842.25
2023-03-26T05:11:57.284Z,98855.94
2023-03-26T05:14:24.234Z,98846.19
2023-03-26T05:16:53.219Z,98852.00
2023-03-26T05:19:19.634Z,98851.81
2023-03-26T05:21:45.993Z,98858.44
2023-03-26T05:24:12.366Z,98838.59
2023-03-26T05:26:38.713Z,98852.00
2023-03-26T05:29:05.297Z,98845.56
2023-03-26T05:31:32.035Z,98852.84
2023-03-26T05:34:00.541Z,98852.19
2023-03-26T05:36:28.370Z,98858.47
2023-03-26T05:38:54.788Z,98855.34
2023-03-26T05:41:21.163Z,98859.47
2023-03-26T05:43:48.846Z,98861.44
2023-03-26T05:46:15.994Z,98864.75
2023-03-26T05:48:42.449Z,98861.75
2023-03-26T05:51:08.942Z,98855.00
2023-03-26T05:53:35.339Z,98858.63
2023-03-26T05:56:01.987Z,98862.75
2023-03-26T05:58:31.348Z,98870.03
2023-03-26T06:00:58.426Z,98860.75
2023-03-26T06:03:25.176Z,98871.66
2023-03-26T06:05:51.910Z,98872.28
2023-03-26T06:08:19.403Z,98862.72
2023-03-26T06:10:45.945Z,98875.56
2023-03-26T06:13:13.591Z,98864.47
2023-03-26T06:15:39.939Z,98872.72
2023-03-26T06:18:06.350Z,98858.66
2023-03-26T06:20:32.904Z,98871.88
2023-03-26T06:22:59.253Z,98863.28
2023-03-26T06:25:25.605Z,98849.03
2023-03-26T06:27:51.961Z,98862.59
2023-03-26T06:30:18.293Z,98854.31
2023-03-26T06:32:44.653Z,98854.13
2023-03-26T06:35:11.438Z,98858.75
2023-03-26T06:37:37.882Z,98855.88
2023-03-26T06:40:05.125Z,98860.84
2023-03-26T06:43:06.722Z,98871.06
2023-03-26T06:45:18.187Z,98854.88
2023-03-26T06:47:44.577Z,98854.81
2023-03-26T06:50:11.841Z,98853.47
2023-03-26T06:52:38.449Z,98857.13
2023-03-26T06:55:06.509Z,98852.84
2023-03-26T06:57:32.883Z,98855.84
2023-03-26T06:59:59.217Z,98856.66
2023-03-26T07:02:26.443Z,98851.72
2023-03-26T07:04:53.464Z,98853.47
2023-03-26T07:07:21.705Z,98866.69
2023-03-26T07:09:48.298Z,98856.78
2023-03-26T07:12:15.236Z,98863.69
2023-03-26T07:14:41.622Z,98865.72
2023-03-26T07:17:08.233Z,98856.41
2023-03-26T07:19:34.611Z,98869.34
2023-03-26T07:22:01.590Z,98866.19
2023-03-26T07:24:28.334Z,98856.97
2023-03-26T07:26:58.670Z,98846.81
2023-03-26T07:29:35.505Z,98865.97
2023-03-26T07:32:11.800Z,98852.72
2023-03-26T07:35:00.744Z,98851.34
2023-03-26T07:37:56.084Z,98849.72
2023-03-26T07:40:57.376Z,98839.06
2023-03-26T07:43:45.425Z,98847.00
2023-03-26T07:46:13.080Z,98854.00
2023-03-26T07:48:44.916Z,98846.69
2023-03-26T07:51:11.943Z,98842.69
2023-03-26T07:53:38.473Z,98848.34
2023-03-26T07:56:14.465Z,98838.81
2023-03-26T07:59:20.676Z,98840.00
2023-03-26T08:02:24.297Z,98844.56
2023-03-26T08:04:55.933Z,98846.94
2023-03-26T08:07:47.115Z,98839.28
2023-03-26T08:10:27.171Z,98841.31
2023-03-26T08:13:19.617Z,98845.03
2023-03-26T08:15:58.027Z,98842.28
2023-03-26T08:18:46.756Z,98839.47
2023-03-26T08:21:20.541Z,98846.75
2023-03-26T08:24:13.269Z,98836.28
2023-03-26T08:27:13.411Z,98844.69
2023-03-26T08:29:51.600Z,98844.06
2023-03-26T08:32:20.091Z,98836.72
2023-03-26T08:34:46.717Z,98836.13
2023-03-26T08:37:13.354Z,98839.88
2023-03-26T08:39:41.929Z,98846.34
2023-03-26T08:42:30.572Z,98835.28
2023-03-26T08:45:28.947Z,98839.94
2023-03-26T08:48:26.640Z,98839.56
2023-03-26T08:51:18.728Z,98823.63
2023-03-26T08:54:27.190Z,98835.03
2023-03-26T08:57:39.978Z,98826.63
2023-03-26T09:00:28.135Z,98830.19
2023-03-26T09:03:03.459Z,98820.66
2023-03-26T09:06:13.177Z,98828.53
2023-03-26T09:09:18.772Z,98811.06
2023-03-26T09:12:25.457Z,98805.88
2023-03-26T09:15:21.314Z,98814.00
2023-03-26T09:18:23.214Z,98811.06
2023-03-26T09:21:27.322Z,98800.66
2023-03-26T09:24:31.334Z,98803.03
2023-03-26T09:27:16.383Z,98802.94
2023-03-26T09:30:20.539Z,98805.06
2023-03-26T09:33:13.352Z,98803.22
2023-03-26T09:36:10.386Z,98789.16
2023-03-26T09:39:09.130Z,98784.03
2023-03-26T09:42:03.875Z,98781.44
2023-03-26T09:45:01.308Z,98782.25
2023-03-26T09:47:30.570Z,98772.56
2023-03-26T09:50:21.633Z,98778.88
2023-03-26T09:53:03.676Z,98770.41
2023-03-26T09:55:54.325Z,98767.84
2023-03-26T09:58:29.598Z,98769.91
2023-03-26T10:01:20.640Z,98762.94
2023-03-26T10:04:03.619Z,98763.38
2023-03-26T10:06:56.623Z,98757.47
2023-03-26T10:09:38.888Z,98757.84
2023-03-26T10:12:24.344Z,98754.19
2023-03-26T10:15:16.652Z,98755.31
2023-03-26T10:17:51.998Z,98750.13
2023-03-26T10:20:27.685Z,98741.75
2023-03-26T10:23:15.863Z,98735.19
2023-03-26T10:26:19.678Z,98735.19
2023-03-26T10:29:04.534Z,98723.78
2023-03-26T10:31:51.808Z,98712.69
2023-03-26T10:34:49.543Z,98720.91
2023-03-26T10:37:29.885Z,98715.91
2023-03-26T10:40:26.966Z,98702.31
2023-03-26T10:43:19.744Z,98702.31
2023-03-26T10:45:54.345Z,98692.47
2023-03-26T10:48:42.992Z,98678.66
2023-03-26T10:51:21.019Z,98677.94
2023-03-26T10:54:12.391Z,98669.75
2023-03-26T10:56:46.514Z,98673.63
2023-03-26T10:59:14.454Z,98651.38
2023-03-26T11:02:04.461Z,98659.56
2023-03-26T11:04:55.957Z,98657.56
2023-03-26T11:07:36.250Z,98647.59
2023-03-26T11:10:11.558Z,98659.22
2023-03-26T11:13:00.656Z,98648.97
2023-03-26T11:15:34.037Z,98649.38
2023-03-26T11:18:15.925Z,98640.81
2023-03-26T11:21:18.124Z,98645.31
2023-03-26T11:24:17.942Z,98647.13
2023-03-26T11:26:52.859Z,98635.91
2023-03-26T11:29:40.936Z,98629.56
2023-03-26T11:32:22.786Z,98633.03
2023-03-26T11:35:15.496Z,98630.56
2023-03-26T11:37:46.340Z,98626.88
2023-03-26T11:40:34.800Z,98631.41
2023-03-26T11:43:04.795Z,98627.06
2023-03-26T11:45:37.254Z,98629.31
2023-03-26T11:48:08.093Z,98611.28
2023-03-26T11:50:38.640Z,98610.88
2023-03-26T11:53:14.597Z,98604.78
2023-03-26T11:55:47.450Z,98604.00
2023-03-26T11:58:30.934Z,98602.38
2023-03-26T12:00:57.499Z,98603.19
2023-03-26T12:03:24.117Z,98607.69
2023-03-26T12:05:57.745Z,98613.19
2023-03-26T12:08:32.850Z,98605.63
2023-03-26T12:11:05.706Z,98606.66
2023-03-26T12:13:50.568Z,98606.00
2023-03-26T12:16:19.786Z,98597.81
2023-03-26T12:18:47.445Z,98593.72
2023-03-26T12:21:19.257Z,98589.25
2023-03-26T12:23:58.442Z,98598.22
2023-03-26T12:26:48.791Z,98599.44
2023-03-26T12:29:17.704Z,98590.06
2023-03-26T12:32:04.613Z,98587.59
2023-03-26T12:34:35.242Z,98586.78
2023-03-26T12:37:03.573Z,98590.44
2023-03-26T12:40:09.974Z,98585.13
2023-03-26T12:44:50.583Z,98581.66
2023-03-26T12:45:15.690Z,98592.97
2023-03-26T12:47:58.828Z,98583.53
2023-03-26T12:50:41.385Z,98590.09
2023-03-26T12:53:21.484Z,98577.81
2023-03-26T12:56:00.407Z,98586.81
2023-03-26T12:58:58.150Z,98583.94
2023-03-26T13:01:38.769Z,98582.91
2023-03-26T13:04:27.335Z,98577.81
2023-03-26T13:07:25.028Z,98572.09
2023-03-26T13:10:30.428Z,98572.91
2023-03-26T13:13:16.807Z,98568.59
2023-03-26T13:15:49.943Z,98560.19
2023-03-26T13:18:48.161Z,98554.06
2023-03-26T13:21:25.957Z,98557.31
2023-03-26T13:24:21.229Z,98555.28
2023-03-26T13:27:26.337Z,98553.66
2023-03-26T13:30:14.582Z,98547.13
2023-03-26T13:32:58.729Z,98548.53
2023-03-26T13:35:48.310Z,98548.75
2023-03-26T13:38:23.782Z,98541.78
2023-03-26T13:41:20.938Z,98542.22
2023-03-26T13:43:58.169Z,98529.97
2023-03-26T13:46:24.506Z,98532.81
2023-03-26T13:48:57.695Z,98536.47
2023-03-26T13:51:31.850Z,98541.38
2023-03-26T13:54:05.766Z,98541.38
2023-03-26T13:56:40.863Z,98539.78
2023-03-26T13:59:19.093Z,98539.34
2023-03-26T14:01:56.577Z,98540.13
2023-03-26T14:04:33.646Z,98532.34
2023-03-26T14:07:11.999Z,98540.09
2023-03-26T14:09:48.870Z,98537.16
2023-03-26T14:12:40.391Z,98550.78
2023-03-26T14:15:15.380Z,98544.09
2023-03-26T14:17:48.458Z,98541.78
2023-03-26T14:20:17.496Z,98547.47
2023-03-26T14:23:08.004Z,98551.94
2023-03-26T14:25:53.089Z,98557.44
2023-03-26T14:28:47.000Z,98556.63
2023-03-26T14:31:32.224Z,98557.94
2023-03-26T14:34:13.865Z,98562.28
2023-03-26T14:36:53.015Z,98557.16
2023-03-26T14:39:37.097Z,98553.06
2023-03-26T14:42:17.757Z,98552.81
2023-03-26T14:45:14.657Z,98554.59
2023-03-26T14:47:59.354Z,98560.28
2023-03-26T14:50:42.496Z,98556.56
2023-03-26T14:53:33.351Z,98538.19
2023-03-26T14:56:09.487Z,98547.94
2023-03-26T14:59:22.928Z,98547.94
2023-03-26T15:02:37.461Z,98541.63
2023-03-26T15:05:15.857Z,98539.63
2023-03-26T15:08:06.898Z,98547.28
2023-03-26T15:10:54.569Z,98539.13
2023-03-26T15:13:46.464Z,98534.84
2023-03-26T15:16:45.502Z,98534.13
2023-03-26T15:19:59.721Z,98534.84
2023-03-26T15:22:52.610Z,98537.59
2023-03-26T15:25:45.286Z,98538.34
2023-03-26T15:28:23.559Z,98541.50
2023-03-26T15:31:09.817Z,98537.38
2023-03-26T15:34:13.944Z,98527.47
2023-03-26T15:37:00.269Z,98546.63
2023-03-26T15:39:59.652Z,98538.06
2023-03-26T15:42:45.616Z,98538.53
2023-03-26T15:45:33.510Z,98541.56
2023-03-26T15:48:12.492Z,98543.13
2023-03-26T15:50:57.910Z,98536.81
2023-03-26T15:53:36.561Z,98540.56
2023-03-26T15:56:38.298Z,98547.78
2023-03-26T15:59:14.380Z,98530.91
2023-03-26T16:02:09.985Z,98541.00
2023-03-26T16:04:51.633Z,98543.59
2023-03-26T16:07:38.900Z,98543.75
2023-03-26T16:10:17.163Z,98538.19
2023-03-26T16:13:11.831Z,98537.81
2023-03-26T16:15:38.524Z,98545.19
2023-03-26T16:18:19.167Z,98544.47
2023-03-26T16:20:57.120Z,98543.75
2023-03-26T16:23:53.686Z,98546.75
2023-03-26T16:26:35.498Z,98542.44
2023-03-26T16:29:04.605Z,98550.13
2023-03-26T16:31:37.857Z,98542.28
2023-03-26T16:34:04.909Z,98545.16
2023-03-26T16:36:36.239Z,98543.88
2023-03-26T16:39:05.514Z,98543.22
2023-03-26T16:41:51.213Z,98547.34
2023-03-26T16:44:28.981Z,98549.25
2023-03-26T16:47:15.363Z,98546.91
2023-03-26T16:50:10.587Z,98551.91
2023-03-26T16:53:15.680Z,98549.16
2023-03-26T16:56:02.600Z,98544.44
2023-03-26T16:58:37.807Z,98548.41
2023-03-26T17:01:17.523Z,98550.06
2023-03-26T17:03:56.655Z,98547.50
2023-03-26T17:07:09.001Z,98545.84
2023-03-26T17:10:12.897Z,98551.97
2023-03-26T17:12:59.639Z,98550.41
2023-03-26T17:15:56.010Z,98553.06
2023-03-26T17:18:31.384Z,98551.63
2023-03-26T17:21:04.897Z,98557.00
2023-03-26T17:23:53.148Z,98553.41
2023-03-26T17:26:42.200Z,98553.06
2023-03-26T17:29:18.716Z,98564.53
2023-03-26T17:32:03.293Z,98565.81
2023-03-26T17:34:46.610Z,98566.88
2023-03-26T17:37:18.898Z,98559.78
2023-03-26T17:39:48.088Z,98563.59
2023-03-26T17:42:35.574Z,98563.44
2023-03-26T17:45:07.868Z,98564.44
2023-03-26T17:47:52.697Z,98569.41
2023-03-26T17:50:30.009Z,98566.69
2023-03-26T17:53:07.433Z,98569.06
2023-03-26T17:55:37.837Z,98569.78
2023-03-26T17:58:07.223Z,98581.09
2023-03-26T18:00:42.831Z,98573.84
2023-03-26T18:03:20.013Z,98582.13
2023-03-26T18:05:48.788Z,98575.81
2023-03-26T18:08:39.159Z,98586.84
2023-03-26T18:11:19.555Z,98583.22
2023-03-26T18:13:51.880Z,98577.66
2023-03-26T18:16:24.227Z,98589.38
2023-03-26T18:19:19.142Z,98588.72
2023-03-26T18:22:03.224Z,98591.66
2023-03-26T18:24:38.007Z,98591.31
2023-03-26T18:27:12.478Z,98585.81
2023-03-26T18:29:44.301Z,98585.81
2023-03-26T18:32:10.632Z,98586.03
2023-03-26T18:34:39.851Z,98586.38
2023-03-26T18:37:24.333Z,98584.50
2023-03-26T18:40:07.396Z,98584.50
2023-03-26T18:42:33.946Z,98579.81
2023-03-26T18:45:07.861Z,98577.22
2023-03-26T18:47:36.541Z,98577.59
2023-03-26T18:50:03.115Z,98582.41
2023-03-26T18:52:31.945Z,98578.28
2023-03-26T18:54:59.453Z,98577.28
2023-03-26T18:57:28.720Z,98577.53
2023-03-26T19:00:08.783Z,98570.94
2023-03-26T19:02:35.819Z,98568.41
2023-03-26T19:05:02.877Z,98563.94
2023-03-26T19:07:29.722Z,98562.31
2023-03-26T19:09:56.700Z,98569.06
2023-03-26T19:12:29.155Z,98565.66
2023-03-26T19:15:09.854Z,98561.75
2023-03-26T19:17:53.304Z,98555.41
2023-03-26T19:20:27.154Z,98552.50
2023-03-26T19:22:55.199Z,98547.41
2023-03-26T19:25:40.698Z,98544.94
2023-03-26T19:28:17.040Z,98554.34
2023-03-26T19:30:43.816Z,98546.06
2023-03-26T19:33:18.855Z,98542.13
2023-03-26T19:35:51.706Z,98544.22
2023-03-26T19:38:41.610Z,98540.72
2023-03-26T19:41:23.344Z,98540.19
2023-03-26T19:43:51.606Z,98540.81
2023-03-26T19:46:21.701Z,98527.81
2023-03-26T19:48:52.553Z,98527.81
2023-03-26T19:51:21.227Z,98519.53
2023-03-26T19:53:55.681Z,98519.41
2023-03-26T19:56:22.774Z,98513.94
2023-03-26T19:58:50.132Z,98513.34
2023-03-26T20:01:18.930Z,98512.88
2023-03-26T20:03:48.594Z,98508.78
2023-03-26T20:06:22.164Z,98510.16
2023-03-26T20:08:53.056Z,98509.84
2023-03-26T20:11:21.354Z,98507.56
2023-03-26T20:13:48.247Z,98498.47
2023-03-26T20:16:27.879Z,98498.66
2023-03-26T20:19:02.357Z,98493.13
2023-03-26T20:21:29.977Z,98494.25
2023-03-26T20:23:56.313Z,98487.16
2023-03-26T20:26:24.055Z,98487.19
2023-03-26T20:28:53.502Z,98482.88
2023-03-26T20:31:23.160Z,98482.88
2023-03-26T20:33:50.628Z,98486.50
2023-03-26T20:36:33.201Z,98483.59
2023-03-26T20:39:01.206Z,98491.78
2023-03-26T20:41:27.829Z,98489.44
2023-03-26T20:43:54.266Z,98481.00
2023-03-26T20:46:31.065Z,98476.44
2023-03-26T20:48:59.350Z,98480.34
2023-03-26T20:51:28.193Z,98480.28
2023-03-26T20:53:55.437Z,98483.09
2023-03-26T20:56:21.972Z,98474.78
2023-03-26T20:58:52.696Z,98471.84
2023-03-26T21:01:27.786Z,98473.94
2023-03-26T21:03:54.307Z,98475.81
2023-03-26T21:06:20.644Z,98475.00
2023-03-26T21:08:47.323Z,98474.44
2023-03-26T21:11:37.017Z,98469.03
2023-03-26T21:14:09.383Z,98481.53
2023-03-26T21:16:36.307Z,98480.75
2023-03-26T21:19:03.032Z,98485.69
2023-03-26T21:21:46.113Z,98478.63
2023-03-26T21:24:23.845Z,98475.81
2023-03-26T21:27:09.610Z,98480.53
2023-03-26T21:29:36.689Z,98475.47
2023-03-26T21:32:03.282Z,98478.75
2023-03-26T21:34:32.821Z,98484.03
2023-03-26T21:37:00.115Z,98489.19
2023-03-26T21:39:27.865Z,98489.19
2023-03-26T21:42:05.248Z,98500.38
2023-03-26T21:44:32.922Z,98502.69
2023-03-26T21:46:59.510Z,98509.94
2023-03-26T21:49:26.147Z,98517.88
2023-03-26T21:51:52.764Z,98514.44
2023-03-26T21:54:25.608Z,98513.22
2023-03-26T21:57:26.850Z,98524.38
2023-03-26T22:00:02.414Z,98519.91
2023-03-26T22:02:54.572Z,98525.38
2023-03-26T22:05:45.974Z,98533.28
2023-03-26T22:08:33.406Z,98536.75
2023-03-26T22:10:59.910Z,98533.59
2023-03-26T22:13:27.144Z,98519.09
2023-03-26T22:15:53.696Z,98520.41
2023-03-26T22:18:25.769Z,98518.75
2023-03-26T22:20:52.934Z,98515.06
2023-03-26T22:23:19.794Z,98519.75
2023-03-26T22:25:46.370Z,98525.72
2023-03-26T22:28:13.727Z,98531.13
2023-03-26T22:30:40.125Z,98535.44
2023-03-26T22:33:10.862Z,98529.34
2023-03-26T22:35:38.166Z,98522.72
2023-03-26T22:38:05.039Z,98527.38
2023-03-26T22:40:31.835Z,98528.41
2023-03-26T22:42:58.274Z,98528.19
2023-03-26T22:45:24.642Z,98530.50
2023-03-26T22:47:51.076Z,98532.16
2023-03-26T22:50:17.629Z,98527.19
2023-03-26T22:52:44.035Z,98525.56
2023-03-26T22:55:11.563Z,98523.28
2023-03-26T22:57:38.651Z,98526.69
2023-03-26T23:00:15.526Z,98528.06
2023-03-26T23:02:44.944Z,98530.72
2023-03-26T23:05:13.247Z,98527.25
2023-03-26T23:07:40.187Z,98527.94
2023-03-26T23:10:07.471Z,98528.88
2023-03-26T23:12:33.836Z,98527.41
2023-03-26T23:15:04.931Z,98536.78
2023-03-26T23:17:35.591Z,98535.78
2023-03-26T23:20:06.122Z,98536.47
2023-03-26T23:22:32.510Z,98537.44
2023-03-26T23:24:58.833Z,98540.91
2023-03-26T23:27:25.328Z,98545.72
2023-03-26T23:29:51.689Z,98542.41
2023-03-26T23:32:23.476Z,98552.63
2023-03-26T23:34:51.757Z,98554.94
2023-03-26T23:37:22.902Z,98553.66
2023-03-26T23:39:50.489Z,98553.31
2023-03-26T23:42:17.129Z,98553.66
2023-03-26T23:44:56.757Z,98556.63
2023-03-26T23:47:23.181Z,98554.31
2023-03-26T23:49:49.738Z,98553.31
2023-03-26T23:52:16.150Z,98558.22
2023-03-26T23:54:42.562Z,98560.03
2023-03-26T23:57:09.014Z,98563.50
2023-03-26T23:59:35.578Z,98561.88
